createdAt,value
2018-04-06T00:02:30.326Z,2.93
2018-04-06T00:05:03.824Z,2.82
2018-04-06T00:07:37.404Z,2.79
2018-04-06T00:10:11.160Z,2.82
2018-04-06T00:12:44.902Z,2.78
2018-04-06T00:15:18.610Z,2.71
2018-04-06T00:17:52.271Z,2.59
2018-04-06T00:20:25.855Z,2.62
2018-04-06T00:22:59.478Z,2.62
2018-04-06T00:25:33.198Z,2.67
2018-04-06T00:28:06.827Z,2.77
2018-04-06T00:30:40.468Z,2.93
2018-04-06T00:33:14.135Z,3.09
2018-04-06T00:35:47.650Z,3.16
2018-04-06T00:38:21.349Z,3.19
2018-04-06T00:40:55.030Z,3.19
2018-04-06T00:43:28.853Z,3.16
2018-04-06T00:46:02.501Z,3.17
2018-04-06T00:48:36.056Z,3.11
2018-04-06T00:51:09.801Z,2.99
2018-04-06T00:53:48.392Z,2.86
2018-04-06T00:56:22.110Z,2.91
2018-04-06T00:58:55.720Z,3.01
2018-04-06T01:01:29.377Z,3.11
2018-04-06T01:04:03.121Z,3.11
2018-04-06T01:06:36.715Z,3.09
2018-04-06T01:09:10.248Z,3.05
2018-04-06T01:11:43.859Z,3.03
2018-04-06T01:14:17.535Z,3.02
2018-04-06T01:16:51.254Z,3.06
2018-04-06T01:19:24.910Z,3.10
2018-04-06T01:21:58.577Z,3.07
2018-04-06T01:24:32.245Z,3.01
2018-04-06T01:27:05.818Z,2.98
2018-04-06T01:29:39.705Z,3.00
2018-04-06T01:32:13.500Z,3.10
2018-04-06T01:34:47.095Z,3.07
2018-04-06T01:37:20.845Z,3.00
2018-04-06T01:39:54.464Z,2.89
2018-04-06T01:42:27.989Z,2.90
2018-04-06T01:45:01.678Z,2.88
2018-04-06T01:47:35.205Z,2.77
2018-04-06T01:50:08.833Z,2.77
2018-04-06T01:52:42.621Z,2.73
2018-04-06T01:55:16.430Z,2.63
2018-04-06T01:57:50.106Z,2.59
2018-04-06T02:00:23.814Z,2.58
2018-04-06T02:02:57.445Z,2.58
2018-04-06T02:05:31.110Z,2.63
2018-04-06T02:08:04.795Z,2.61
2018-04-06T02:10:38.385Z,2.68
2018-04-06T02:13:12.147Z,2.66
2018-04-06T02:15:45.954Z,2.59
2018-04-06T02:18:19.551Z,2.56
2018-04-06T02:20:53.196Z,2.55
2018-04-06T02:23:26.901Z,2.51
2018-04-06T02:26:00.535Z,2.43
2018-04-06T02:28:34.039Z,2.36
2018-04-06T02:31:07.609Z,2.36
2018-04-06T02:33:41.294Z,2.36
2018-04-06T02:36:14.926Z,2.20
2018-04-06T02:38:48.684Z,2.11
2018-04-06T02:41:22.310Z,2.06
2018-04-06T02:43:56.082Z,2.05
2018-04-06T02:46:29.864Z,2.06
2018-04-06T02:49:03.636Z,2.02
2018-04-06T02:51:37.379Z,2.14
2018-04-06T02:54:11.124Z,2.08
2018-04-06T02:56:44.892Z,2.04
2018-04-06T02:59:18.687Z,2.19
2018-04-06T03:01:52.210Z,2.21
2018-04-06T03:04:25.825Z,2.13
2018-04-06T03:06:59.492Z,2.10
2018-04-06T03:09:33.039Z,2.15
2018-04-06T03:12:06.673Z,2.20
2018-04-06T03:14:40.234Z,2.10
2018-04-06T03:17:13.907Z,2.10
2018-04-06T03:19:47.469Z,2.00
2018-04-06T03:22:21.059Z,1.94
2018-04-06T03:24:54.769Z,2.03
2018-04-06T03:27:28.453Z,2.00
2018-04-06T03:30:02.112Z,2.07
2018-04-06T03:32:35.885Z,2.04
2018-04-06T03:35:09.675Z,2.13
2018-04-06T03:37:43.321Z,2.11
2018-04-06T03:40:17.139Z,2.09
2018-04-06T03:42:50.859Z,2.08
2018-04-06T03:45:24.395Z,2.09
2018-04-06T03:47:58.048Z,2.13
2018-04-06T03:50:31.768Z,2.11
2018-04-06T03:53:05.458Z,2.00
2018-04-06T03:55:39.091Z,1.99
2018-04-06T03:58:12.759Z,2.08
2018-04-06T04:00:46.441Z,2.13
2018-04-06T04:03:20.009Z,2.11
2018-04-06T04:05:53.605Z,2.07
2018-04-06T04:08:27.373Z,2.10
2018-04-06T04:11:01.111Z,2.05
2018-04-06T04:13:34.766Z,2.01
2018-04-06T04:16:08.494Z,2.02
2018-04-06T04:18:42.313Z,2.05
2018-04-06T04:21:16.010Z,1.96
2018-04-06T04:23:49.502Z,1.96
2018-04-06T04:26:23.185Z,1.96
2018-04-06T04:28:56.842Z,2.06
2018-04-06T04:31:30.659Z,2.08
2018-04-06T04:34:04.357Z,2.11
2018-04-06T04:36:38.123Z,2.04
2018-04-06T04:39:11.722Z,1.91
2018-04-06T04:41:45.476Z,1.94
2018-04-06T04:44:19.132Z,1.98
2018-04-06T04:46:52.834Z,1.89
2018-04-06T04:49:26.522Z,1.80
2018-04-06T04:52:00.152Z,1.81
2018-04-06T04:54:33.771Z,1.80
2018-04-06T04:57:07.338Z,1.83
2018-04-06T04:59:41.056Z,1.85
2018-04-06T05:02:14.716Z,1.81
2018-04-06T05:04:48.461Z,1.82
2018-04-06T05:07:22.071Z,1.81
2018-04-06T05:09:55.667Z,1.79
2018-04-06T05:12:29.291Z,1.77
2018-04-06T05:15:02.854Z,1.83
2018-04-06T05:17:36.592Z,1.86
2018-04-06T05:20:10.318Z,1.88
2018-04-06T05:22:43.924Z,1.87
2018-04-06T05:25:17.586Z,1.92
2018-04-06T05:27:51.137Z,1.96
2018-04-06T05:30:24.748Z,1.99
2018-04-06T05:32:58.290Z,2.04
2018-04-06T05:35:32.111Z,2.08
2018-04-06T05:38:05.713Z,2.15
2018-04-06T05:40:39.394Z,2.17
2018-04-06T05:43:12.932Z,2.29
2018-04-06T05:45:46.747Z,2.35
2018-04-06T05:48:20.443Z,2.52
2018-04-06T05:50:54.298Z,2.59
2018-04-06T05:53:28.055Z,2.68
2018-04-06T05:56:01.903Z,2.76
2018-04-06T05:58:35.556Z,2.91
2018-04-06T06:01:09.338Z,3.07
2018-04-06T06:03:43.111Z,3.86
2018-04-06T06:06:16.697Z,4.99
2018-04-06T06:08:50.416Z,5.97
2018-04-06T06:11:24.030Z,6.45
2018-04-06T06:13:57.629Z,6.82
2018-04-06T06:16:31.222Z,7.65
2018-04-06T06:19:04.877Z,7.64
2018-04-06T06:21:38.708Z,8.14
2018-04-06T06:24:12.382Z,9.01
2018-04-06T06:26:46.107Z,8.97
2018-04-06T06:29:19.854Z,9.10
2018-04-06T06:31:53.475Z,9.22
2018-04-06T06:34:27.078Z,9.24
2018-04-06T06:40:02.272Z,10.37
2018-04-06T06:42:36.185Z,10.97
2018-04-06T06:45:09.897Z,10.99
2018-04-06T06:47:43.664Z,11.78
2018-04-06T06:50:17.272Z,12.24
2018-04-06T06:52:51.070Z,12.01
2018-04-06T06:55:24.885Z,12.05
2018-04-06T06:57:58.508Z,11.99
2018-04-06T07:00:32.175Z,12.32
2018-04-06T07:03:05.910Z,12.46
2018-04-06T07:05:39.600Z,12.17
2018-04-06T07:08:13.242Z,12.19
2018-04-06T07:10:46.963Z,12.41
2018-04-06T07:13:20.972Z,12.62
2018-04-06T07:15:54.639Z,12.44
2018-04-06T07:18:28.259Z,13.06
2018-04-06T07:21:02.025Z,12.95
2018-04-06T07:23:35.785Z,14.04
2018-04-06T07:26:09.492Z,13.00
2018-04-06T07:28:43.231Z,13.68
2018-04-06T07:31:16.838Z,13.29
2018-04-06T07:33:50.530Z,14.66
2018-04-06T07:36:24.220Z,14.25
2018-04-06T07:38:57.908Z,13.43
2018-04-06T07:41:31.498Z,13.92
2018-04-06T07:44:05.228Z,14.83
2018-04-06T07:46:38.887Z,14.13
2018-04-06T07:49:12.480Z,14.32
2018-04-06T07:51:46.052Z,14.11
2018-04-06T07:54:19.712Z,14.23
2018-04-06T07:56:53.591Z,14.51
2018-04-06T07:59:27.199Z,14.43
2018-04-06T08:02:00.772Z,14.14
2018-04-06T08:04:34.343Z,13.48
2018-04-06T08:07:08.140Z,13.80
2018-04-06T08:09:41.895Z,14.07
2018-04-06T08:12:15.540Z,14.07
2018-04-06T08:14:49.205Z,14.66
2018-04-06T08:17:22.953Z,14.53
2018-04-06T08:19:56.543Z,14.74
2018-04-06T08:22:30.123Z,14.46
2018-04-06T08:25:03.840Z,14.39
2018-04-06T08:27:37.631Z,14.38
2018-04-06T08:30:11.336Z,13.61
2018-04-06T08:32:45.070Z,15.20
2018-04-06T08:35:18.743Z,15.20
2018-04-06T08:37:52.506Z,15.66
2018-04-06T08:40:26.167Z,15.65
2018-04-06T08:42:59.898Z,15.93
2018-04-06T08:45:33.645Z,16.56
2018-04-06T08:48:07.365Z,15.31
2018-04-06T08:50:41.022Z,14.86
2018-04-06T08:53:14.775Z,15.93
2018-04-06T08:55:48.514Z,16.15
2018-04-06T08:58:22.289Z,16.76
2018-04-06T09:00:55.828Z,16.96
2018-04-06T09:03:29.510Z,17.49
2018-04-06T09:06:03.134Z,17.68
2018-04-06T09:08:36.932Z,17.69
2018-04-06T09:11:10.615Z,18.23
2018-04-06T09:13:44.173Z,18.50
2018-04-06T09:16:17.829Z,17.88
2018-04-06T09:18:51.489Z,16.57
2018-04-06T09:21:25.190Z,18.30
2018-04-06T09:23:58.784Z,18.15
2018-04-06T09:26:32.540Z,17.80
2018-04-06T09:29:06.312Z,17.75
2018-04-06T09:31:39.876Z,17.58
2018-04-06T09:34:13.658Z,16.97
2018-04-06T09:36:47.235Z,16.32
2018-04-06T09:39:20.959Z,15.91
2018-04-06T09:41:54.719Z,15.01
2018-04-06T09:44:28.433Z,14.03
2018-04-06T09:47:02.030Z,13.83
2018-04-06T09:49:35.754Z,13.53
2018-04-06T09:52:09.454Z,13.22
2018-04-06T09:54:43.075Z,12.81
2018-04-06T09:57:16.707Z,12.04
2018-04-06T09:59:50.317Z,11.87
2018-04-06T10:02:23.990Z,11.96
2018-04-06T10:04:57.592Z,11.96
2018-04-06T10:07:31.326Z,11.77
2018-04-06T10:10:05.338Z,11.53
2018-04-06T10:12:38.954Z,11.87
2018-04-06T10:15:12.718Z,11.98
2018-04-06T10:17:46.451Z,12.15
2018-04-06T10:20:20.194Z,12.14
2018-04-06T10:22:53.906Z,12.00
2018-04-06T10:25:27.692Z,12.01
2018-04-06T10:28:01.362Z,12.40
2018-04-06T10:30:35.141Z,12.86
2018-04-06T10:33:08.663Z,13.28
2018-04-06T10:35:42.385Z,14.41
2018-04-06T10:38:16.117Z,15.88
2018-04-06T10:40:49.809Z,16.48
2018-04-06T10:43:23.498Z,17.17
2018-04-06T10:45:57.082Z,17.48
2018-04-06T10:48:30.855Z,17.95
2018-04-06T10:51:04.607Z,18.34
2018-04-06T10:53:38.164Z,19.36
2018-04-06T10:56:11.884Z,19.71
2018-04-06T10:58:45.623Z,19.34
2018-04-06T11:01:19.326Z,19.83
2018-04-06T11:03:53.072Z,20.62
2018-04-06T11:06:26.879Z,20.67
2018-04-06T11:09:00.679Z,20.61
2018-04-06T11:11:34.449Z,19.19
2018-04-06T11:14:08.030Z,19.04
2018-04-06T11:16:41.811Z,18.33
2018-04-06T11:19:15.495Z,18.02
2018-04-06T11:21:49.212Z,17.80
2018-04-06T11:24:22.839Z,17.51
2018-04-06T11:26:56.400Z,17.80
2018-04-06T11:29:30.007Z,17.68
2018-04-06T11:32:03.738Z,17.76
2018-04-06T11:34:37.408Z,17.51
2018-04-06T11:37:11.492Z,16.52
2018-04-06T11:39:45.709Z,16.62
2018-04-06T11:42:19.504Z,16.13
2018-04-06T11:44:53.232Z,15.77
2018-04-06T11:47:26.819Z,15.34
2018-04-06T11:50:00.375Z,15.15
2018-04-06T11:52:34.005Z,14.73
2018-04-06T11:55:07.813Z,14.30
2018-04-06T11:57:41.609Z,13.97
2018-04-06T12:00:15.278Z,13.83
2018-04-06T12:02:48.998Z,13.79
2018-04-06T12:05:22.581Z,13.87
2018-04-06T12:07:56.333Z,13.90
2018-04-06T12:10:29.906Z,13.93
2018-04-06T12:13:03.723Z,14.02
2018-04-06T12:15:37.493Z,14.21
2018-04-06T12:18:11.278Z,14.16
2018-04-06T12:20:45.039Z,14.07
2018-04-06T12:23:18.719Z,14.01
2018-04-06T12:25:52.393Z,14.04
2018-04-06T12:28:26.174Z,14.10
2018-04-06T12:30:59.867Z,14.25
2018-04-06T12:33:33.579Z,14.27
2018-04-06T12:36:07.423Z,14.10
2018-04-06T12:38:41.127Z,13.89
2018-04-06T12:41:14.784Z,13.81
2018-04-06T12:43:48.476Z,13.77
2018-04-06T12:46:22.329Z,13.86
2018-04-06T12:48:56.100Z,13.94
2018-04-06T12:51:29.702Z,13.77
2018-04-06T12:54:03.266Z,13.95
2018-04-06T12:56:36.990Z,13.95
2018-04-06T12:59:10.605Z,14.11
2018-04-06T13:01:44.292Z,14.25
2018-04-06T13:04:18.011Z,14.32
2018-04-06T13:06:52.452Z,14.29
2018-04-06T13:09:26.244Z,14.34
2018-04-06T13:11:59.891Z,14.44
2018-04-06T13:14:33.523Z,14.55
2018-04-06T13:17:07.119Z,14.35
2018-04-06T13:19:40.855Z,14.33
2018-04-06T13:22:14.461Z,14.47
2018-04-06T13:24:48.178Z,14.35
2018-04-06T13:27:21.831Z,14.17
2018-04-06T13:29:55.499Z,14.29
2018-04-06T13:32:29.162Z,14.26
2018-04-06T13:35:02.921Z,14.28
2018-04-06T13:37:36.631Z,14.40
2018-04-06T13:40:10.432Z,14.50
2018-04-06T13:42:44.071Z,14.50
2018-04-06T13:45:17.876Z,14.51
2018-04-06T13:47:51.474Z,14.59
2018-04-06T13:50:25.315Z,14.65
2018-04-06T13:52:58.956Z,14.69
2018-04-06T13:55:32.741Z,14.79
2018-04-06T13:58:06.371Z,14.81
2018-04-06T14:00:40.116Z,14.74
2018-04-06T14:03:13.739Z,14.77
2018-04-06T14:05:47.432Z,14.97
2018-04-06T14:08:21.136Z,14.64
2018-04-06T14:10:54.768Z,14.87
2018-04-06T14:13:28.448Z,15.01
2018-04-06T14:16:02.287Z,15.01
2018-04-06T14:18:36.179Z,15.12
2018-04-06T14:21:09.921Z,15.21
2018-04-06T14:23:43.704Z,15.58
2018-04-06T14:26:17.503Z,16.39
2018-04-06T14:28:51.213Z,17.05
2018-04-06T14:31:24.944Z,17.36
2018-04-06T14:33:58.812Z,17.49
2018-04-06T14:36:32.454Z,17.49
2018-04-06T14:39:06.986Z,18.02
2018-04-06T14:41:40.695Z,18.93
2018-04-06T14:44:14.450Z,18.72
2018-04-06T14:46:48.286Z,20.10
2018-04-06T14:49:22.042Z,19.98
2018-04-06T14:51:55.689Z,21.46
2018-04-06T14:54:29.347Z,22.02
2018-04-06T14:57:03.158Z,21.24
2018-04-06T14:59:36.846Z,20.63
2018-04-06T15:02:10.682Z,20.64
2018-04-06T15:04:44.387Z,21.24
2018-04-06T15:07:18.183Z,21.64
2018-04-06T15:09:51.772Z,21.21
2018-04-06T15:12:25.459Z,20.71
2018-04-06T15:14:59.173Z,20.99
2018-04-06T15:17:33.044Z,21.83
2018-04-06T15:20:06.666Z,21.86
2018-04-06T15:22:40.295Z,21.79
2018-04-06T15:25:14.694Z,21.47
2018-04-06T15:27:48.403Z,20.83
2018-04-06T15:30:22.076Z,20.67
2018-04-06T15:32:55.941Z,20.68
2018-04-06T15:35:29.651Z,20.61
2018-04-06T15:38:03.394Z,20.38
2018-04-06T15:40:37.100Z,20.50
2018-04-06T15:43:10.752Z,20.15
2018-04-06T15:45:44.456Z,20.37
2018-04-06T15:48:18.285Z,20.34
2018-04-06T15:50:51.946Z,19.83
2018-04-06T15:53:25.575Z,19.55
2018-04-06T15:55:59.207Z,19.98
2018-04-06T15:58:32.878Z,19.88
2018-04-06T16:01:06.592Z,19.54
2018-04-06T16:03:40.369Z,19.06
2018-04-06T16:06:14.066Z,18.45
2018-04-06T16:08:47.684Z,18.68
2018-04-06T16:11:21.235Z,18.24
2018-04-06T16:13:54.900Z,17.64
2018-04-06T16:16:28.695Z,17.36
2018-04-06T16:19:02.388Z,17.08
2018-04-06T16:21:36.140Z,16.40
2018-04-06T16:24:09.862Z,15.77
2018-04-06T16:26:43.547Z,15.48
2018-04-06T16:29:17.167Z,15.13
2018-04-06T16:31:50.834Z,14.98
2018-04-06T16:34:24.570Z,14.85
2018-04-06T16:36:58.177Z,14.69
2018-04-06T16:39:31.780Z,14.59
2018-04-06T16:42:05.463Z,14.54
2018-04-06T16:44:39.299Z,14.50
2018-04-06T16:47:13.034Z,14.41
2018-04-06T16:49:46.657Z,14.37
2018-04-06T16:52:20.425Z,14.33
2018-04-06T16:54:54.238Z,14.25
2018-04-06T16:57:27.795Z,14.18
2018-04-06T17:00:01.522Z,14.08
2018-04-06T17:02:35.201Z,14.06
2018-04-06T17:05:09.100Z,13.95
2018-04-06T17:07:42.702Z,13.86
2018-04-06T17:10:16.540Z,13.83
2018-04-06T17:12:50.300Z,13.72
2018-04-06T17:15:23.878Z,13.59
2018-04-06T17:17:57.609Z,13.59
2018-04-06T17:20:31.541Z,13.50
2018-04-06T17:23:05.235Z,13.46
2018-04-06T17:25:39.036Z,13.38
2018-04-06T17:28:12.642Z,13.29
2018-04-06T17:30:46.282Z,13.27
2018-04-06T17:33:19.935Z,13.23
2018-04-06T17:35:53.697Z,13.15
2018-04-06T17:38:27.414Z,13.06
2018-04-06T17:41:01.080Z,12.98
2018-04-06T17:43:34.841Z,12.85
2018-04-06T17:46:08.549Z,12.80
2018-04-06T17:48:42.282Z,12.71
2018-04-06T17:51:16.036Z,12.63
2018-04-06T17:53:49.670Z,12.59
2018-04-06T17:56:23.471Z,12.60
2018-04-06T17:58:57.176Z,12.48
2018-04-06T18:01:31.043Z,12.41
2018-04-06T18:04:04.835Z,12.40
2018-04-06T18:06:38.538Z,12.24
2018-04-06T18:09:12.631Z,12.13
2018-04-06T18:11:46.352Z,12.12
2018-04-06T18:14:20.135Z,12.09
2018-04-06T18:16:53.757Z,12.06
2018-04-06T18:19:27.443Z,12.00
2018-04-06T18:22:01.085Z,12.00
2018-04-06T18:24:34.897Z,11.97
2018-04-06T18:27:08.708Z,11.89
2018-04-06T18:29:42.389Z,11.78
2018-04-06T18:32:16.180Z,11.72
2018-04-06T18:34:49.987Z,11.68
2018-04-06T18:37:23.707Z,11.69
2018-04-06T18:39:57.372Z,11.66
2018-04-06T18:42:31.076Z,11.69
2018-04-06T18:45:04.842Z,11.63
2018-04-06T18:47:38.562Z,11.58
2018-04-06T18:50:12.207Z,11.52
2018-04-06T18:52:46.040Z,11.43
2018-04-06T18:55:19.964Z,11.42
2018-04-06T18:57:53.590Z,11.35
2018-04-06T19:00:27.138Z,11.39
2018-04-06T19:03:00.894Z,11.42
2018-04-06T19:05:34.612Z,11.38
2018-04-06T19:08:08.172Z,11.36
2018-04-06T19:10:41.912Z,11.26
2018-04-06T19:13:15.666Z,11.36
2018-04-06T19:15:49.385Z,11.33
2018-04-06T19:18:23.533Z,11.30
2018-04-06T19:20:57.349Z,11.22
2018-04-06T19:23:31.123Z,11.29
2018-04-06T19:26:04.687Z,11.28
2018-04-06T19:28:38.349Z,11.24
2018-04-06T19:31:12.154Z,11.31
2018-04-06T19:33:45.830Z,11.26
2018-04-06T19:36:19.566Z,11.31
2018-04-06T19:38:53.138Z,11.25
2018-04-06T19:41:26.823Z,11.27
2018-04-06T19:44:00.772Z,11.28
2018-04-06T19:46:34.441Z,11.29
2018-04-06T19:49:08.005Z,11.31
2018-04-06T19:51:41.683Z,11.26
2018-04-06T19:54:15.334Z,11.23
2018-04-06T19:56:48.934Z,11.27
2018-04-06T19:59:22.692Z,11.31
2018-04-06T20:01:56.418Z,11.31
2018-04-06T20:04:30.131Z,11.25
2018-04-06T20:07:04.075Z,11.27
2018-04-06T20:09:37.848Z,11.24
2018-04-06T20:12:11.594Z,11.33
2018-04-06T20:14:45.423Z,11.31
2018-04-06T20:17:19.107Z,11.31
2018-04-06T20:19:52.966Z,11.23
2018-04-06T20:22:26.821Z,11.23
2018-04-06T20:25:00.454Z,11.16
2018-04-06T20:27:34.146Z,11.15
2018-04-06T20:30:07.904Z,11.13
2018-04-06T20:32:41.596Z,11.16
2018-04-06T20:35:15.324Z,11.25
2018-04-06T20:37:49.051Z,11.27
2018-04-06T20:40:22.840Z,11.24
2018-04-06T20:42:56.370Z,11.21
2018-04-06T20:45:30.173Z,11.19
2018-04-06T20:48:03.903Z,11.16
2018-04-06T20:50:37.574Z,11.14
2018-04-06T20:53:11.584Z,11.16
2018-04-06T20:55:45.263Z,11.16
2018-04-06T20:58:18.861Z,11.13
2018-04-06T21:00:52.681Z,11.10
2018-04-06T21:03:26.358Z,11.06
2018-04-06T21:05:59.989Z,11.14
2018-04-06T21:08:33.742Z,11.12
2018-04-06T21:11:07.404Z,11.14
2018-04-06T21:13:41.262Z,11.15
2018-04-06T21:16:14.915Z,11.07
2018-04-06T21:18:48.672Z,11.01
2018-04-06T21:21:22.319Z,11.03
2018-04-06T21:23:56.138Z,10.99
2018-04-06T21:26:29.959Z,11.03
2018-04-06T21:29:03.702Z,11.02
2018-04-06T21:31:37.659Z,10.96
2018-04-06T21:34:11.318Z,10.85
2018-04-06T21:36:45.122Z,10.93
2018-04-06T21:39:18.890Z,10.98
2018-04-06T21:41:52.454Z,11.03
2018-04-06T21:44:26.139Z,11.00
2018-04-06T21:46:59.754Z,10.98
2018-04-06T21:49:33.283Z,10.98
2018-04-06T21:52:07.046Z,11.02
2018-04-06T21:54:40.831Z,11.04
2018-04-06T21:57:14.502Z,10.99
2018-04-06T21:59:48.512Z,10.95
2018-04-06T22:02:22.104Z,10.95
2018-04-06T22:04:55.881Z,11.02
2018-04-06T22:07:29.561Z,11.00
2018-04-06T22:10:03.379Z,10.97
2018-04-06T22:12:36.994Z,10.93
2018-04-06T22:15:10.669Z,10.95
2018-04-06T22:17:44.370Z,10.98
2018-04-06T22:20:18.198Z,10.97
2018-04-06T22:22:51.971Z,10.86
2018-04-06T22:25:25.610Z,10.90
2018-04-06T22:27:59.456Z,10.93
2018-04-06T22:30:33.218Z,10.92
2018-04-06T22:33:06.905Z,10.93
2018-04-06T22:35:40.632Z,10.96
2018-04-06T22:38:14.314Z,10.95
2018-04-06T22:40:47.878Z,10.94
2018-04-06T22:43:21.663Z,10.93
2018-04-06T22:45:55.712Z,10.91
2018-04-06T22:48:29.367Z,10.96
2018-04-06T22:51:03.167Z,10.96
2018-04-06T22:53:36.714Z,10.92
2018-04-06T22:56:10.564Z,10.96
2018-04-06T22:58:44.258Z,10.90
2018-04-06T23:01:17.991Z,10.86
2018-04-06T23:03:51.576Z,10.82
2018-04-06T23:06:25.262Z,10.77
2018-04-06T23:08:58.980Z,10.72
2018-04-06T23:11:32.531Z,10.70
2018-04-06T23:14:06.294Z,10.71
2018-04-06T23:16:39.860Z,10.68
2018-04-06T23:19:13.582Z,10.66
2018-04-06T23:21:47.235Z,10.68
2018-04-06T23:24:20.963Z,10.73
2018-04-06T23:26:54.924Z,10.69
2018-04-06T23:29:28.474Z,10.72
2018-04-06T23:32:02.195Z,10.69
2018-04-06T23:34:35.850Z,10.64
2018-04-06T23:37:09.663Z,10.58
2018-04-06T23:39:43.308Z,10.58
2018-04-06T23:42:16.982Z,10.58
2018-04-06T23:44:50.695Z,10.54
2018-04-06T23:47:24.371Z,10.52
2018-04-06T23:49:58.068Z,10.56
2018-04-06T23:52:31.854Z,10.59
2018-04-06T23:55:05.523Z,10.54
2018-04-06T23:57:39.217Z,10.56
